Time;durP1;ratioP1;P1;durP2;ratioP2;P2;SDS_P1;SDS_P2;PMS_P1;PMS_P2;Temp;Humidity;BMP_temperature;BMP_pressure;BME280_temperature;BME280_humidity;BME280_pressure;Samples;Min_cycle;Max_cycle;Signal;HPM_P1;HPM_P2
2022/03/10 00:01:29;;;;;;;19.58;9.35;;;;;;;;;;5113359;28;20274;-65
2022/03/10 00:03:56;;;;;;;26.55;10.32;;;;;;;;;;5099884;28;20163;-65
2022/03/10 00:06:22;;;;;;;24.75;11.02;;;;;;;;;;5100310;28;20195;-62
2022/03/10 00:08:48;;;;;;;25.52;10.80;;;;;;;;;;5099997;28;20552;-65
2022/03/10 00:11:14;;;;;;;24.00;9.98;;;;;;;;;;5100227;28;20194;-65
2022/03/10 00:13:40;;;;;;;26.88;10.18;;;;;;;;;;5099930;28;20166;-65
2022/03/10 00:16:06;;;;;;;25.20;10.02;;;;;;;;;;5099767;28;20464;-64
2022/03/10 00:18:31;;;;;;;25.42;10.38;;;;;;;;;;5099731;28;20174;-65
2022/03/10 00:20:57;;;;;;;25.13;10.45;;;;;;;;;;5099968;28;20317;-65
2022/03/10 00:23:23;;;;;;;21.83;10.23;;;;;;;;;;5100110;28;20164;-62
2022/03/10 00:25:49;;;;;;;32.83;10.40;;;;;;;;;;5099198;28;20509;-62
2022/03/10 00:28:18;;;;;;;23.73;9.98;;;;;;;;;;5096206;28;20171;-62
2022/03/10 00:30:43;;;;;;;30.45;10.93;;;;;;;;;;5096491;28;20646;-62
2022/03/10 00:33:09;;;;;;;25.50;10.50;;;;;;;;;;5096688;28;20168;-65
2022/03/10 00:35:35;;;;;;;25.85;10.90;;;;;;;;;;5096370;28;20167;-65
2022/03/10 00:38:01;;;;;;;24.00;9.60;;;;;;;;;;5096440;28;20487;-62
2022/03/10 00:40:28;;;;;;;21.88;10.10;;;;;;;;;;5096621;28;20228;-64
2022/03/10 00:42:54;;;;;;;23.88;10.45;;;;;;;;;;5096343;28;20626;-64
2022/03/10 00:45:20;;;;;;;22.67;10.23;;;;;;;;;;5096304;28;20262;-65
2022/03/10 00:47:46;;;;;;;22.90;9.57;;;;;;;;;;5096116;28;20668;-65
2022/03/10 00:50:12;;;;;;;25.48;9.60;;;;;;;;;;5095882;28;20167;-64
2022/03/10 00:52:42;;;;;;;21.08;9.48;;;;;;;;;;5095930;28;20178;-64
2022/03/10 00:55:08;;;;;;;20.88;9.13;;;;;;;;;;5096088;28;20229;-65
2022/03/10 00:57:34;;;;;;;21.08;9.90;;;;;;;;;;5095994;28;20168;-65
2022/03/10 01:00:00;;;;;;;26.92;9.95;;;;;;;;;;5095976;28;20175;-65
2022/03/10 01:02:26;;;;;;;22.65;10.30;;;;;;;;;;5095880;28;20479;-65
2022/03/10 01:04:52;;;;;;;22.98;9.13;;;;;;;;;;5095885;28;20202;-63
2022/03/10 01:07:18;;;;;;;28.13;9.82;;;;;;;;;;5095624;28;20289;-64
2022/03/10 01:09:44;;;;;;;23.42;9.30;;;;;;;;;;5095761;28;20579;-64
2022/03/10 01:12:10;;;;;;;19.20;9.65;;;;;;;;;;5095454;28;20203;-63
2022/03/10 01:14:36;;;;;;;19.92;9.80;;;;;;;;;;5095588;28;20163;-63
2022/03/10 01:17:02;;;;;;;20.30;9.82;;;;;;;;;;5094546;28;20168;-64
2022/03/10 01:19:29;;;;;;;20.05;9.55;;;;;;;;;;5095589;28;20584;-64
2022/03/10 01:21:55;;;;;;;20.83;9.15;;;;;;;;;;5095879;28;20171;-64
2022/03/10 01:24:21;;;;;;;21.73;9.80;;;;;;;;;;5095473;28;20282;-63
2022/03/10 01:26:47;;;;;;;17.80;9.35;;;;;;;;;;5095308;28;20175;-64
2022/03/10 01:29:13;;;;;;;19.08;8.88;;;;;;;;;;5095319;28;20163;-63
2022/03/10 01:31:39;;;;;;;19.08;9.27;;;;;;;;;;5095309;28;20195;-63
2022/03/10 01:34:05;;;;;;;18.38;9.25;;;;;;;;;;5095630;28;20176;-63
2022/03/10 01:36:31;;;;;;;16.63;8.55;;;;;;;;;;5095293;28;20168;-65
2022/03/10 01:38:57;;;;;;;17.73;9.50;;;;;;;;;;5095206;28;20164;-63
2022/03/10 01:41:23;;;;;;;19.15;9.45;;;;;;;;;;5095047;28;20259;-65
2022/03/10 01:44:03;;;;;;;19.90;8.73;;;;;;;;;;5095298;28;20164;-64
2022/03/10 01:46:29;;;;;;;19.27;8.90;;;;;;;;;;5095198;28;20171;-65
2022/03/10 01:48:56;;;;;;;19.83;9.27;;;;;;;;;;5095316;28;20255;-65
2022/03/10 01:51:23;;;;;;;21.13;9.77;;;;;;;;;;5095112;28;20534;-64
2022/03/10 01:53:50;;;;;;;20.35;9.85;;;;;;;;;;5094799;28;20182;-65
2022/03/10 01:56:16;;;;;;;18.85;9.15;;;;;;;;;;5094616;28;20519;-65
2022/03/10 01:58:42;;;;;;;20.48;9.02;;;;;;;;;;5094761;28;20496;-65
2022/03/10 02:01:10;;;;;;;20.85;9.77;;;;;;;;;;5094722;28;20267;-64
2022/03/10 02:03:38;;;;;;;20.48;9.35;;;;;;;;;;5094943;28;20217;-64
2022/03/10 02:06:04;;;;;;;19.55;9.05;;;;;;;;;;5094877;28;20163;-64
2022/03/10 02:11:15;;;;;;;21.00;9.75;;;;;;;;;;5094626;28;20197;-64
2022/03/10 02:13:41;;;;;;;24.55;9.82;;;;;;;;;;5094622;28;20599;-63
2022/03/10 02:18:56;;;;;;;23.08;9.75;;;;;;;;;;5094430;28;20205;-64
2022/03/10 02:21:22;;;;;;;22.38;10.50;;;;;;;;;;5094342;28;20225;-64
2022/03/10 02:23:48;;;;;;;30.73;10.57;;;;;;;;;;5094534;28;20186;-64
2022/03/10 02:26:15;;;;;;;29.08;10.68;;;;;;;;;;5094631;28;20189;-64
2022/03/10 02:28:41;;;;;;;26.48;9.90;;;;;;;;;;5094431;28;20262;-63
2022/03/10 02:31:07;;;;;;;24.33;10.57;;;;;;;;;;5094316;28;20558;-64
2022/03/10 02:33:33;;;;;;;27.73;10.30;;;;;;;;;;5094379;28;20163;-64
2022/03/10 02:35:59;;;;;;;27.63;11.23;;;;;;;;;;5094128;28;20216;-64
2022/03/10 02:38:25;;;;;;;30.83;10.88;;;;;;;;;;5094507;28;20214;-63
2022/03/10 02:40:51;;;;;;;26.98;11.10;;;;;;;;;;5094251;28;20485;-63
2022/03/10 02:43:18;;;;;;;29.63;10.77;;;;;;;;;;5094157;28;20167;-63
2022/03/10 02:45:45;;;;;;;27.48;10.25;;;;;;;;;;5094374;28;20163;-63
2022/03/10 02:48:11;;;;;;;29.13;10.95;;;;;;;;;;5094449;28;20178;-63
2022/03/10 02:50:37;;;;;;;30.20;11.80;;;;;;;;;;5093427;28;20661;-63
2022/03/10 02:53:04;;;;;;;28.20;10.85;;;;;;;;;;5093913;28;20164;-63
2022/03/10 02:55:30;;;;;;;32.53;12.57;;;;;;;;;;5093925;28;20614;-63
2022/03/10 02:57:56;;;;;;;34.58;12.05;;;;;;;;;;5094105;28;20171;-63
2022/03/10 03:00:22;;;;;;;31.15;12.13;;;;;;;;;;5096960;28;20179;-63
2022/03/10 03:02:48;;;;;;;24.58;11.43;;;;;;;;;;5102588;28;20163;-63
2022/03/10 03:05:14;;;;;;;28.70;11.88;;;;;;;;;;5100580;28;20189;-63
2022/03/10 03:07:41;;;;;;;34.47;12.70;;;;;;;;;;5101259;28;20175;-64
2022/03/10 03:10:07;;;;;;;36.92;12.63;;;;;;;;;;5096800;28;20597;-63
2022/03/10 03:12:33;;;;;;;36.17;12.48;;;;;;;;;;5093786;28;20206;-64
2022/03/10 03:15:00;;;;;;;34.00;12.68;;;;;;;;;;5093880;28;20179;-64
2022/03/10 03:17:26;;;;;;;45.30;13.48;;;;;;;;;;5093665;28;20175;-63
2022/03/10 03:19:52;;;;;;;40.42;13.10;;;;;;;;;;5093473;28;20288;-64
2022/03/10 03:22:18;;;;;;;33.35;13.27;;;;;;;;;;5093593;28;20591;-64
2022/03/10 03:24:45;;;;;;;30.52;12.07;;;;;;;;;;5093713;28;20213;-64
2022/03/10 03:27:11;;;;;;;37.50;12.65;;;;;;;;;;5093785;28;20167;-64
2022/03/10 03:29:37;;;;;;;33.78;12.90;;;;;;;;;;5093527;28;20587;-64
2022/03/10 03:32:03;;;;;;;31.13;11.43;;;;;;;;;;5093272;28;20198;-64
2022/03/10 03:34:29;;;;;;;27.60;11.70;;;;;;;;;;5093493;28;20204;-64
2022/03/10 03:36:55;;;;;;;30.52;12.63;;;;;;;;;;5093460;28;20168;-64
2022/03/10 03:39:20;;;;;;;32.97;13.07;;;;;;;;;;5093469;28;20167;-64
2022/03/10 03:41:46;;;;;;;33.22;12.50;;;;;;;;;;5093503;28;20167;-63
2022/03/10 03:44:13;;;;;;;33.80;12.77;;;;;;;;;;5093272;28;20591;-64
2022/03/10 03:46:39;;;;;;;36.53;13.68;;;;;;;;;;5093456;28;20250;-64
2022/03/10 03:49:05;;;;;;;34.95;12.75;;;;;;;;;;5092243;28;20252;-64
2022/03/10 03:51:31;;;;;;;46.30;12.80;;;;;;;;;;5093230;28;20240;-63
2022/03/10 03:53:57;;;;;;;36.88;14.07;;;;;;;;;;5093507;28;20171;-64
2022/03/10 03:56:23;;;;;;;43.60;13.90;;;;;;;;;;5093130;28;20179;-64
2022/03/10 03:58:49;;;;;;;38.03;14.00;;;;;;;;;;5093395;28;20160;-64
2022/03/10 04:01:15;;;;;;;49.00;13.77;;;;;;;;;;5093692;28;20252;-64
2022/03/10 04:03:42;;;;;;;52.20;14.02;;;;;;;;;;5096979;28;20171;-64
2022/03/10 04:06:08;;;;;;;49.40;15.02;;;;;;;;;;5097264;28;20171;-64
2022/03/10 04:08:34;;;;;;;45.17;13.52;;;;;;;;;;5096858;28;20183;-63
2022/03/10 04:11:00;;;;;;;40.47;13.18;;;;;;;;;;5096949;28;20195;-64
2022/03/10 04:13:26;;;;;;;41.88;13.80;;;;;;;;;;5096676;28;20164;-64
2022/03/10 04:15:53;;;;;;;51.90;14.75;;;;;;;;;;5096836;28;20175;-64
2022/03/10 04:18:19;;;;;;;47.80;15.10;;;;;;;;;;5097032;28;20214;-64
2022/03/10 04:20:45;;;;;;;57.40;15.57;;;;;;;;;;5097138;28;20595;-64
2022/03/10 04:23:12;;;;;;;49.05;16.23;;;;;;;;;;5096869;28;20542;-64
2022/03/10 04:25:38;;;;;;;55.85;18.25;;;;;;;;;;5096865;28;20663;-64
2022/03/10 04:28:04;;;;;;;48.28;16.58;;;;;;;;;;5096692;28;20195;-64
2022/03/10 04:30:33;;;;;;;73.07;18.02;;;;;;;;;;5096326;28;20529;-64
2022/03/10 04:32:58;;;;;;;56.05;17.60;;;;;;;;;;5096834;28;20168;-64
2022/03/10 04:35:25;;;;;;;70.47;18.05;;;;;;;;;;5096354;28;20219;-63
2022/03/10 04:37:52;;;;;;;73.82;18.80;;;;;;;;;;5096663;28;20166;-64
2022/03/10 04:40:18;;;;;;;57.20;17.65;;;;;;;;;;5096622;28;20164;-64
2022/03/10 04:42:44;;;;;;;54.38;17.00;;;;;;;;;;5096359;28;20618;-63
2022/03/10 04:45:10;;;;;;;59.63;16.67;;;;;;;;;;5095939;28;20178;-64
2022/03/10 04:47:36;;;;;;;60.63;17.63;;;;;;;;;;5096285;28;20155;-64
2022/03/10 04:50:06;;;;;;;49.33;16.92;;;;;;;;;;5096321;28;20160;-64
2022/03/10 04:52:32;;;;;;;71.03;17.35;;;;;;;;;;5096507;28;20180;-64
2022/03/10 04:54:58;;;;;;;48.15;15.48;;;;;;;;;;5096179;28;20232;-64
2022/03/10 04:57:24;;;;;;;54.10;16.63;;;;;;;;;;5096020;28;20175;-64
2022/03/10 04:59:50;;;;;;;55.28;17.90;;;;;;;;;;5095691;28;20184;-64
2022/03/10 05:02:16;;;;;;;63.80;17.13;;;;;;;;;;5096243;28;20160;-64
2022/03/10 05:04:42;;;;;;;49.80;16.88;;;;;;;;;;5095823;28;20180;-64
2022/03/10 05:07:08;;;;;;;51.92;17.67;;;;;;;;;;5095803;28;20171;-63
2022/03/10 05:09:34;;;;;;;50.58;16.83;;;;;;;;;;5095767;28;20228;-64
2022/03/10 05:12:00;;;;;;;49.72;16.65;;;;;;;;;;5095392;28;20187;-64
2022/03/10 05:14:26;;;;;;;56.20;17.38;;;;;;;;;;5095684;28;20294;-63
2022/03/10 05:16:52;;;;;;;56.83;17.50;;;;;;;;;;5095896;28;20183;-64
2022/03/10 05:19:18;;;;;;;48.33;16.20;;;;;;;;;;5095920;28;20616;-64
2022/03/10 05:21:44;;;;;;;53.25;16.10;;;;;;;;;;5095527;28;20168;-63
2022/03/10 05:24:11;;;;;;;57.85;16.55;;;;;;;;;;5095503;28;20515;-62
2022/03/10 05:26:38;;;;;;;47.35;17.08;;;;;;;;;;5096059;28;20179;-63
2022/03/10 05:29:04;;;;;;;53.10;15.95;;;;;;;;;;5095895;28;20171;-63
2022/03/10 05:31:29;;;;;;;51.67;15.98;;;;;;;;;;5095340;28;20346;-63
2022/03/10 05:33:55;;;;;;;39.58;14.73;;;;;;;;;;5095346;28;20238;-62
2022/03/10 05:36:22;;;;;;;46.53;15.23;;;;;;;;;;5095383;28;20194;-63
2022/03/10 05:38:47;;;;;;;42.20;16.10;;;;;;;;;;5095785;28;20163;-64
2022/03/10 05:41:14;;;;;;;42.60;14.35;;;;;;;;;;5095499;28;20172;-64
2022/03/10 05:43:39;;;;;;;42.72;15.65;;;;;;;;;;5095428;28;20164;-64
2022/03/10 05:46:05;;;;;;;41.88;15.68;;;;;;;;;;5095458;28;20171;-62
2022/03/10 05:48:31;;;;;;;39.38;14.80;;;;;;;;;;5095980;28;20170;-64
2022/03/10 05:50:58;;;;;;;43.45;14.95;;;;;;;;;;5096106;28;20654;-64
2022/03/10 05:53:24;;;;;;;34.88;14.73;;;;;;;;;;5101198;28;20251;-63
2022/03/10 05:55:50;;;;;;;40.95;14.80;;;;;;;;;;5097644;28;20191;-63
2022/03/10 05:58:16;;;;;;;41.58;15.27;;;;;;;;;;5095315;28;20170;-63
2022/03/10 06:00:42;;;;;;;40.58;15.23;;;;;;;;;;5094957;28;20630;-64
2022/03/10 06:03:08;;;;;;;38.10;14.73;;;;;;;;;;5095083;28;20171;-62
2022/03/10 06:05:34;;;;;;;37.60;15.07;;;;;;;;;;5094853;28;20167;-64
2022/03/10 06:08:00;;;;;;;42.13;16.05;;;;;;;;;;5095191;28;20171;-64
2022/03/10 06:10:26;;;;;;;37.55;15.60;;;;;;;;;;5094615;28;20206;-64
2022/03/10 06:12:52;;;;;;;38.20;15.27;;;;;;;;;;5095507;28;20167;-64
2022/03/10 06:15:18;;;;;;;37.67;15.18;;;;;;;;;;5094675;28;20171;-64
2022/03/10 06:17:44;;;;;;;34.03;16.05;;;;;;;;;;5094380;28;20163;-64
2022/03/10 06:20:11;;;;;;;33.85;14.43;;;;;;;;;;5094300;28;20190;-64
2022/03/10 06:22:37;;;;;;;33.15;15.82;;;;;;;;;;5094303;28;20215;-64
2022/03/10 06:25:04;;;;;;;37.08;16.77;;;;;;;;;;5093495;28;20179;-64
2022/03/10 06:27:30;;;;;;;38.03;16.95;;;;;;;;;;5094277;28;20164;-64
2022/03/10 06:29:56;;;;;;;35.80;14.98;;;;;;;;;;5094403;28;20194;-64
2022/03/10 06:32:22;;;;;;;39.05;15.75;;;;;;;;;;5094118;28;20630;-64
2022/03/10 06:34:49;;;;;;;33.35;14.80;;;;;;;;;;5094242;28;20174;-64
2022/03/10 06:37:15;;;;;;;32.03;14.35;;;;;;;;;;5094298;28;20186;-64
2022/03/10 06:39:41;;;;;;;34.97;15.38;;;;;;;;;;5094046;28;20181;-64
2022/03/10 06:42:09;;;;;;;36.38;14.77;;;;;;;;;;5094098;28;20171;-63
2022/03/10 06:44:36;;;;;;;32.65;14.52;;;;;;;;;;5094019;28;20673;-64
2022/03/10 06:47:02;;;;;;;34.72;15.40;;;;;;;;;;5094131;28;20167;-64
2022/03/10 06:49:28;;;;;;;33.22;14.73;;;;;;;;;;5093756;28;20216;-64
2022/03/10 06:51:54;;;;;;;27.60;13.48;;;;;;;;;;5094066;28;20289;-64
2022/03/10 06:54:20;;;;;;;35.00;16.23;;;;;;;;;;5093795;28;20242;-64
2022/03/10 06:56:46;;;;;;;32.28;14.77;;;;;;;;;;5093628;28;20178;-64
2022/03/10 06:59:12;;;;;;;36.40;14.10;;;;;;;;;;5093743;28;20164;-63
2022/03/10 07:01:38;;;;;;;30.15;13.63;;;;;;;;;;5093717;28;20179;-64
2022/03/10 07:04:04;;;;;;;31.80;14.27;;;;;;;;;;5093886;28;20208;-63
2022/03/10 07:06:30;;;;;;;28.92;13.32;;;;;;;;;;5093889;28;20191;-63
2022/03/10 07:08:56;;;;;;;27.15;13.98;;;;;;;;;;5092903;28;20177;-63
2022/03/10 07:11:25;;;;;;;26.27;13.23;;;;;;;;;;5093770;28;20195;-64
2022/03/10 07:13:51;;;;;;;25.20;13.15;;;;;;;;;;5093709;28;20152;-63
2022/03/10 07:16:17;;;;;;;28.27;13.57;;;;;;;;;;5104243;28;20163;-65
2022/03/10 07:18:43;;;;;;;28.80;13.90;;;;;;;;;;5093726;28;20497;-64
2022/03/10 07:21:09;;;;;;;26.35;12.50;;;;;;;;;;5093651;28;20172;-63
2022/03/10 07:23:35;;;;;;;32.17;15.52;;;;;;;;;;5093739;28;20182;-64
2022/03/10 07:26:00;;;;;;;30.00;13.48;;;;;;;;;;5093614;28;20167;-64
2022/03/10 07:28:28;;;;;;;26.95;12.57;;;;;;;;;;5093531;28;20567;-64
2022/03/10 07:30:53;;;;;;;27.70;13.98;;;;;;;;;;5093496;28;20195;-64
2022/03/10 07:33:21;;;;;;;24.75;13.10;;;;;;;;;;5093509;28;20163;-64
2022/03/10 07:35:47;;;;;;;27.58;13.52;;;;;;;;;;5094610;28;20229;-64
2022/03/10 07:38:13;;;;;;;23.02;12.32;;;;;;;;;;5097530;28;20160;-64
2022/03/10 07:40:38;;;;;;;30.50;14.20;;;;;;;;;;5097417;28;20167;-64
2022/03/10 07:43:05;;;;;;;30.52;14.77;;;;;;;;;;5097532;28;20167;-64
2022/03/10 07:45:32;;;;;;;26.55;13.13;;;;;;;;;;5097656;28;20228;-64
2022/03/10 07:47:57;;;;;;;25.17;13.32;;;;;;;;;;5097372;28;20250;-64
2022/03/10 07:50:23;;;;;;;25.65;13.65;;;;;;;;;;5097299;28;20329;-64
2022/03/10 07:52:49;;;;;;;25.42;13.68;;;;;;;;;;5097325;28;20596;-64
2022/03/10 07:55:16;;;;;;;25.63;13.13;;;;;;;;;;5097087;28;20191;-64
2022/03/10 07:57:41;;;;;;;25.27;13.32;;;;;;;;;;5097912;28;20487;-63
2022/03/10 08:00:08;;;;;;;26.55;13.65;;;;;;;;;;5096792;28;20194;-64
2022/03/10 08:02:34;;;;;;;24.88;12.52;;;;;;;;;;5097078;28;20172;-65
2022/03/10 08:05:00;;;;;;;25.52;13.95;;;;;;;;;;5097382;28;20679;-64
2022/03/10 08:07:26;;;;;;;27.48;13.68;;;;;;;;;;5097102;28;20245;-64
2022/03/10 08:09:52;;;;;;;25.30;12.68;;;;;;;;;;5097228;28;20174;-64
2022/03/10 08:12:18;;;;;;;25.27;13.65;;;;;;;;;;5096607;28;20199;-64
2022/03/10 08:14:43;;;;;;;26.15;13.57;;;;;;;;;;5097111;28;20494;-64
2022/03/10 08:17:09;;;;;;;23.63;12.48;;;;;;;;;;5096857;28;20234;-64
2022/03/10 08:19:35;;;;;;;24.20;12.40;;;;;;;;;;5096927;28;20174;-64
2022/03/10 08:22:01;;;;;;;25.35;13.65;;;;;;;;;;5096487;28;20228;-64
2022/03/10 08:24:28;;;;;;;22.85;12.48;;;;;;;;;;5096764;28;20202;-64
2022/03/10 08:26:54;;;;;;;21.55;12.27;;;;;;;;;;5096751;28;20500;-64
2022/03/10 08:29:20;;;;;;;22.52;12.55;;;;;;;;;;5096801;28;20252;-64
2022/03/10 08:31:47;;;;;;;21.95;12.18;;;;;;;;;;5096326;28;20188;-64
2022/03/10 08:34:16;;;;;;;22.30;12.07;;;;;;;;;;5096567;28;20164;-64
2022/03/10 08:36:41;;;;;;;22.10;12.68;;;;;;;;;;5096281;28;20156;-63
2022/03/10 08:39:07;;;;;;;24.52;12.27;;;;;;;;;;5096283;28;20174;-64
2022/03/10 08:41:33;;;;;;;22.40;12.70;;;;;;;;;;5095965;28;20534;-64
2022/03/10 08:43:59;;;;;;;23.33;13.77;;;;;;;;;;5096045;28;20176;-64
2022/03/10 08:46:25;;;;;;;24.80;13.77;;;;;;;;;;5095924;28;20168;-63
2022/03/10 08:48:51;;;;;;;25.58;13.98;;;;;;;;;;5095214;28;20160;-63
2022/03/10 08:51:17;;;;;;;23.52;13.85;;;;;;;;;;5096167;28;20209;-64
2022/03/10 08:53:43;;;;;;;21.95;13.02;;;;;;;;;;5096129;28;20243;-64
2022/03/10 08:56:09;;;;;;;21.75;12.93;;;;;;;;;;5096371;28;20255;-64
2022/03/10 08:58:35;;;;;;;24.58;13.55;;;;;;;;;;5095998;28;20576;-64
2022/03/10 09:01:02;;;;;;;25.45;13.40;;;;;;;;;;5095920;28;20509;-64
2022/03/10 09:03:28;;;;;;;24.65;13.32;;;;;;;;;;5095801;28;20667;-64
2022/03/10 09:05:53;;;;;;;25.30;13.52;;;;;;;;;;5096032;28;20172;-64
2022/03/10 09:08:20;;;;;;;25.05;13.45;;;;;;;;;;5096018;28;20228;-64
2022/03/10 09:10:46;;;;;;;26.52;14.55;;;;;;;;;;5095770;28;20192;-64
2022/03/10 09:13:12;;;;;;;23.42;13.50;;;;;;;;;;5095719;28;20489;-64
2022/03/10 09:15:38;;;;;;;26.88;14.70;;;;;;;;;;5095905;28;20171;-63
2022/03/10 09:18:04;;;;;;;26.05;14.40;;;;;;;;;;5095764;28;20163;-62
2022/03/10 09:20:30;;;;;;;27.35;14.00;;;;;;;;;;5095443;28;20619;-64
2022/03/10 09:22:56;;;;;;;26.10;13.98;;;;;;;;;;5095459;28;20159;-64
2022/03/10 09:25:23;;;;;;;26.75;14.57;;;;;;;;;;5095418;28;20174;-64
2022/03/10 09:27:48;;;;;;;27.48;14.05;;;;;;;;;;5095565;28;20159;-64
2022/03/10 09:30:15;;;;;;;27.25;13.55;;;;;;;;;;5095066;28;20609;-64
2022/03/10 09:32:42;;;;;;;24.77;14.60;;;;;;;;;;5095356;28;20537;-64
2022/03/10 09:35:09;;;;;;;23.77;13.45;;;;;;;;;;5095524;28;20206;-64
2022/03/10 09:37:35;;;;;;;26.52;15.25;;;;;;;;;;5095136;28;20163;-64
2022/03/10 09:40:02;;;;;;;26.45;14.05;;;;;;;;;;5095348;28;20250;-64
2022/03/10 09:42:29;;;;;;;25.48;14.05;;;;;;;;;;5094823;28;20195;-63
2022/03/10 09:44:59;;;;;;;25.70;14.18;;;;;;;;;;5094811;28;20167;-64
2022/03/10 09:47:25;;;;;;;24.02;14.40;;;;;;;;;;5094943;28;20172;-64
2022/03/10 09:49:52;;;;;;;26.45;14.32;;;;;;;;;;5095153;28;20172;-64
2022/03/10 09:52:18;;;;;;;24.20;14.00;;;;;;;;;;5094641;28;20290;-64
2022/03/10 09:54:44;;;;;;;24.40;13.70;;;;;;;;;;5094914;28;20619;-64
2022/03/10 09:57:12;;;;;;;23.85;12.88;;;;;;;;;;5094884;28;20228;-64
2022/03/10 10:00:00;;;;;;;21.25;12.75;;;;;;;;;;5094676;28;20473;-64
2022/03/10 10:02:27;;;;;;;22.25;13.00;;;;;;;;;;5086792;28;20702;-64
2022/03/10 10:04:54;;;;;;;22.73;12.77;;;;;;;;;;5095763;28;20240;-63
2022/03/10 10:07:21;;;;;;;23.38;13.05;;;;;;;;;;5095307;28;20167;-63
2022/03/10 10:09:53;;;;;;;21.85;13.35;;;;;;;;;;5095138;28;20178;-63
2022/03/10 10:12:22;;;;;;;19.63;12.27;;;;;;;;;;5094661;28;20195;-64
2022/03/10 10:14:49;;;;;;;19.33;11.05;;;;;;;;;;5094713;28;20213;-64
2022/03/10 10:17:15;;;;;;;18.83;11.93;;;;;;;;;;5094736;28;20228;-64
2022/03/10 10:19:42;;;;;;;21.83;12.75;;;;;;;;;;5094728;28;20503;-64
2022/03/10 10:22:23;;;;;;;18.85;11.70;;;;;;;;;;5094438;28;20182;-64
2022/03/10 10:24:53;;;;;;;21.98;12.00;;;;;;;;;;5094593;28;20183;-64
2022/03/10 10:27:24;;;;;;;21.02;12.05;;;;;;;;;;5094544;28;20185;-64
2022/03/10 10:29:52;;;;;;;18.52;11.65;;;;;;;;;;5094533;28;20466;-64
2022/03/10 10:32:30;;;;;;;17.52;11.05;;;;;;;;;;5093992;28;20195;-63
2022/03/10 10:35:04;;;;;;;19.98;11.38;;;;;;;;;;5094180;28;20167;-64
2022/03/10 10:37:30;;;;;;;19.95;11.13;;;;;;;;;;5094002;28;20155;-63
2022/03/10 10:39:58;;;;;;;19.10;10.98;;;;;;;;;;5095106;28;20191;-62
2022/03/10 10:42:28;;;;;;;19.80;11.73;;;;;;;;;;5094048;28;20602;-63
2022/03/10 10:44:54;;;;;;;20.02;11.80;;;;;;;;;;5094362;28;20214;-63
2022/03/10 10:47:20;;;;;;;18.08;11.27;;;;;;;;;;5094000;28;20595;-64
2022/03/10 10:49:55;;;;;;;19.48;11.73;;;;;;;;;;5094864;28;20242;-64
2022/03/10 10:52:22;;;;;;;19.55;11.77;;;;;;;;;;5094051;28;20178;-63
2022/03/10 10:54:48;;;;;;;17.85;11.93;;;;;;;;;;5094300;28;20174;-64
2022/03/10 10:57:20;;;;;;;19.98;11.57;;;;;;;;;;5094019;28;20190;-63
2022/03/10 10:59:47;;;;;;;21.25;12.35;;;;;;;;;;5093756;28;20549;-63
2022/03/10 11:02:16;;;;;;;19.95;11.88;;;;;;;;;;5094509;28;20156;-64
2022/03/10 11:04:44;;;;;;;22.05;12.25;;;;;;;;;;5094114;28;20259;-62
2022/03/10 11:07:10;;;;;;;23.02;13.35;;;;;;;;;;5094343;28;20159;-64
2022/03/10 11:09:36;;;;;;;19.40;12.27;;;;;;;;;;5093723;28;20590;-64
2022/03/10 11:12:02;;;;;;;20.85;12.55;;;;;;;;;;5093170;28;20646;-64
2022/03/10 11:14:28;;;;;;;19.65;11.85;;;;;;;;;;5093938;28;20171;-64
2022/03/10 11:16:55;;;;;;;17.05;11.82;;;;;;;;;;5093620;28;20216;-64
2022/03/10 11:19:25;;;;;;;18.23;11.60;;;;;;;;;;5093492;28;20171;-64
2022/03/10 11:22:10;;;;;;;21.27;12.43;;;;;;;;;;5093691;28;20184;-64
2022/03/10 11:24:52;;;;;;;18.73;11.25;;;;;;;;;;5094037;28;20259;-64
2022/03/10 11:27:22;;;;;;;16.13;11.10;;;;;;;;;;5093484;28;20159;-64
2022/03/10 11:29:50;;;;;;;17.88;11.40;;;;;;;;;;5093417;28;20411;-64
2022/03/10 11:32:16;;;;;;;17.20;11.48;;;;;;;;;;5093640;28;20187;-64
2022/03/10 11:34:46;;;;;;;16.15;10.10;;;;;;;;;;5093433;28;20182;-64
2022/03/10 11:37:12;;;;;;;16.52;10.15;;;;;;;;;;5093532;28;20236;-64
2022/03/10 11:39:54;;;;;;;19.23;10.75;;;;;;;;;;5093141;28;20167;-64
2022/03/10 11:42:25;;;;;;;15.63;9.98;;;;;;;;;;5093285;28;20167;-64
2022/03/10 11:45:04;;;;;;;16.33;10.50;;;;;;;;;;5093469;28;20530;-64
2022/03/10 11:47:30;;;;;;;16.60;10.77;;;;;;;;;;5093123;28;20230;-64
2022/03/10 11:49:56;;;;;;;15.30;10.63;;;;;;;;;;5093587;28;20718;-64
2022/03/10 11:52:23;;;;;;;16.02;10.77;;;;;;;;;;5093124;28;20210;-64
2022/03/10 11:55:12;;;;;;;16.90;10.80;;;;;;;;;;5093016;28;20248;-64
2022/03/10 11:58:04;;;;;;;14.18;9.40;;;;;;;;;;5093301;28;20156;-64
2022/03/10 12:00:43;;;;;;;14.80;9.98;;;;;;;;;;5092929;28;20194;-65
2022/03/10 12:03:09;;;;;;;13.73;9.68;;;;;;;;;;5093150;28;20217;-64
2022/03/10 12:05:55;;;;;;;14.02;9.32;;;;;;;;;;5092953;28;20160;-63
2022/03/10 12:08:22;;;;;;;13.85;9.32;;;;;;;;;;5092857;28;20166;-63
2022/03/10 12:10:48;;;;;;;15.27;10.23;;;;;;;;;;5093164;28;20198;-65
2022/03/10 12:13:21;;;;;;;14.15;9.32;;;;;;;;;;5093203;28;20313;-63
2022/03/10 12:15:47;;;;;;;17.02;9.20;;;;;;;;;;5092949;28;20168;-63
2022/03/10 12:18:14;;;;;;;12.88;8.70;;;;;;;;;;5092958;28;20159;-65
2022/03/10 12:20:41;;;;;;;14.20;9.65;;;;;;;;;;5092830;28;20156;-64
2022/03/10 12:23:09;;;;;;;14.02;9.88;;;;;;;;;;5094004;28;20609;-64
2022/03/10 12:25:39;;;;;;;17.00;10.00;;;;;;;;;;5096553;28;20171;-64
2022/03/10 12:28:05;;;;;;;14.65;9.52;;;;;;;;;;5096674;28;20172;-64
2022/03/10 12:30:31;;;;;;;13.68;9.75;;;;;;;;;;5096500;28;20263;-64
2022/03/10 12:32:58;;;;;;;14.55;9.23;;;;;;;;;;5096411;28;20266;-64
2022/03/10 12:35:27;;;;;;;13.98;9.05;;;;;;;;;;5096618;28;20178;-65
2022/03/10 12:37:53;;;;;;;13.57;9.73;;;;;;;;;;5096265;28;20217;-64
2022/03/10 12:40:20;;;;;;;13.98;9.82;;;;;;;;;;5096203;28;20163;-65
2022/03/10 12:42:47;;;;;;;13.02;9.63;;;;;;;;;;5096240;28;20171;-65
2022/03/10 12:45:14;;;;;;;16.33;10.65;;;;;;;;;;5096065;28;20171;-64
2022/03/10 12:47:43;;;;;;;14.02;9.57;;;;;;;;;;5096214;28;20216;-64
2022/03/10 12:50:09;;;;;;;13.82;9.70;;;;;;;;;;5096161;28;20170;-64
2022/03/10 12:52:40;;;;;;;16.60;8.90;;;;;;;;;;5096099;28;20282;-63
2022/03/10 12:55:06;;;;;;;16.75;9.88;;;;;;;;;;5096243;28;20148;-63
2022/03/10 12:57:35;;;;;;;14.32;9.27;;;;;;;;;;5095997;28;20607;-63
2022/03/10 13:00:01;;;;;;;12.38;8.52;;;;;;;;;;5095977;28;20190;-63
2022/03/10 13:02:27;;;;;;;12.65;7.82;;;;;;;;;;5097290;28;20639;-63
2022/03/10 13:04:55;;;;;;;15.02;8.48;;;;;;;;;;5096520;28;20159;-63
2022/03/10 13:07:24;;;;;;;13.73;9.00;;;;;;;;;;5096290;28;20179;-63
2022/03/10 13:09:57;;;;;;;14.38;7.88;;;;;;;;;;5096385;28;20160;-63
2022/03/10 13:12:23;;;;;;;12.15;8.00;;;;;;;;;;5096893;28;20272;-63
2022/03/10 13:14:49;;;;;;;12.13;7.28;;;;;;;;;;5102289;28;20188;-63
2022/03/10 13:17:15;;;;;;;11.60;7.75;;;;;;;;;;5098318;28;20655;-64
2022/03/10 13:19:41;;;;;;;12.80;7.57;;;;;;;;;;5095499;28;20246;-63
2022/03/10 13:22:07;;;;;;;10.88;7.75;;;;;;;;;;5095734;28;20175;-64
2022/03/10 13:24:45;;;;;;;12.13;7.93;;;;;;;;;;5095814;28;20171;-64
2022/03/10 13:27:13;;;;;;;10.95;7.40;;;;;;;;;;5095932;28;20212;-64
2022/03/10 13:29:49;;;;;;;13.05;7.05;;;;;;;;;;5095761;28;20175;-64
2022/03/10 13:32:26;;;;;;;12.35;7.05;;;;;;;;;;5096350;28;20221;-64
2022/03/10 13:34:54;;;;;;;9.20;6.53;;;;;;;;;;5095480;28;20625;-63
2022/03/10 13:37:21;;;;;;;9.98;6.78;;;;;;;;;;5096445;28;20178;-63
2022/03/10 13:39:48;;;;;;;11.68;7.60;;;;;;;;;;5096652;28;20172;-64
2022/03/10 13:42:19;;;;;;;12.18;7.18;;;;;;;;;;5096347;28;20167;-64
2022/03/10 13:44:45;;;;;;;10.80;7.43;;;;;;;;;;5095250;28;20493;-63
2022/03/10 13:47:11;;;;;;;9.77;6.72;;;;;;;;;;5094980;28;20164;-63
2022/03/10 13:49:44;;;;;;;11.10;7.60;;;;;;;;;;5095362;28;20214;-63
2022/03/10 13:52:14;;;;;;;17.63;8.18;;;;;;;;;;5095197;28;20197;-64
2022/03/10 13:54:40;;;;;;;16.38;9.15;;;;;;;;;;5094753;28;20660;-64
2022/03/10 13:57:06;;;;;;;15.27;8.45;;;;;;;;;;5094988;28;20163;-64
2022/03/10 13:59:32;;;;;;;13.70;8.23;;;;;;;;;;5095029;28;20216;-62
2022/03/10 14:01:58;;;;;;;12.65;9.15;;;;;;;;;;5095030;28;20183;-65
2022/03/10 14:04:24;;;;;;;15.02;9.30;;;;;;;;;;5095043;28;20167;-65
2022/03/10 14:06:51;;;;;;;11.90;8.20;;;;;;;;;;5095061;28;20168;-64
2022/03/10 14:09:21;;;;;;;12.60;8.63;;;;;;;;;;5094483;28;20199;-65
2022/03/10 14:11:50;;;;;;;12.25;7.57;;;;;;;;;;5094436;28;20191;-65
2022/03/10 14:14:17;;;;;;;13.45;8.95;;;;;;;;;;5094544;28;20167;-64
2022/03/10 14:16:53;;;;;;;15.48;9.32;;;;;;;;;;5094817;28;20164;-65
2022/03/10 14:19:28;;;;;;;12.32;8.55;;;;;;;;;;5094523;28;20216;-65
2022/03/10 14:21:57;;;;;;;14.90;10.13;;;;;;;;;;5094383;28;20535;-63
2022/03/10 14:24:33;;;;;;;17.13;10.20;;;;;;;;;;5094243;28;20193;-64
2022/03/10 14:27:09;;;;;;;12.27;9.25;;;;;;;;;;5094321;28;20171;-64